Date,TemperatureHighF,TemperatureAvgF,TemperatureLowF,DewpointHighF,DewpointAvgF,DewpointLowF,HumidityHigh,HumidityAvg,HumidityLow,PressureMaxIn,PressureMinIn,WindSpeedMaxMPH,WindSpeedAvgMPH,GustSpeedMaxMPH,PrecipitationSumIn
2013-1-1,19.5,4.8,-10.3,15.0,-1.5,-17.0,83,75,65,30.35,30.07,7,2,0,0.00
2013-1-2,20.8,16.3,13.5,17.0,13.1,10.0,89,87,81,30.11,29.98,10,2,0,0.00
2013-1-3,19.4,12.3,8.6,14.0,6.1,1.0,81,76,66,30.31,30.11,13,4,0,0.00
2013-1-4,27.0,20.8,14.9,15.0,12.8,10.0,86,71,60,30.15,30.03,12,4,0,0.00
2013-1-5,23.3,16.8,9.7,14.0,10.4,6.0,86,76,62,30.11,29.88,10,2,0,0.00
2013-1-6,20.0,15.1,8.8,14.0,8.6,2.0,87,75,66,30.26,30.04,10,2,0,0.00
2013-1-7,35.9,28.8,20.6,24.0,21.0,14.0,85,73,62,30.02,29.89,17,6,0,0.00
2013-1-8,34.4,27.5,18.4,28.0,22.2,15.0,88,81,68,29.98,29.76,10,3,0,0.00
2013-1-9,33.4,30.5,25.8,26.0,21.5,19.0,81,70,60,30.36,29.91,17,5,0,0.00
2013-1-10,41.3,35.7,29.1,33.0,24.7,19.0,94,66,41,30.29,29.72,11,4,0,0.00
2013-1-11,40.8,37.0,34.7,40.0,36.1,34.0,97,96,93,29.71,29.36,10,2,0,0.00
2013-1-12,37.6,14.3,3.7,36.0,6.5,-5.0,93,71,61,30.14,29.37,24,7,0,0.00
2013-1-13,8.3,4.4,1.1,0.0,-3.4,-6.0,74,70,65,30.29,30.11,9,2,0,0.00
2013-1-14,12.1,8.0,4.7,6.0,0.4,-1.0,79,71,60,30.47,30.29,13,2,0,0.00
2013-1-15,29.8,20.8,11.6,16.0,11.5,6.0,79,68,53,30.31,29.85,14,5,0,0.00
2013-1-16,36.6,26.1,11.4,31.0,18.3,-2.0,91,73,42,30.24,29.66,16,5,0,0.01
2013-1-17,18.3,11.4,3.0,10.0,0.6,-6.0,75,62,48,30.45,30.26,10,2,0,0.00
2013-1-18,41.6,30.6,16.9,29.0,23.3,10.0,84,75,59,30.31,29.73,18,4,0,0.00
2013-1-19,38.5,24.0,2.2,30.0,16.2,-7.0,88,73,53,30.26,29.66,22,5,0,0.00
2013-1-20,8.3,2.8,-1.2,1.0,-12.5,-99.9,76,59,49,30.47,30.27,11,-49,0,0.00
2013-1-21,-3.9,-4.0,-10.5,-14.0,-45.5,-99.9,68,39,53,30.44,30.32,13,-342,0,0.00
2013-1-22,6.1,-3.2,-10.7,-4.0,-13.4,-19.0,68,62,55,30.49,30.30,6,1,0,0.00
2013-1-23,15.7,7.4,-3.9,7.0,-3.9,-19.0,81,61,44,30.65,30.20,13,3,0,0.00
2013-1-24,14.3,2.9,-5.6,0.0,-11.5,-20.0,56,51,42,30.74,30.22,10,2,0,0.00
2013-1-25,18.9,12.4,3.5,12.0,1.8,-6.0,74,63,53,30.35,29.98,16,5,0,0.00
2013-1-26,25.0,13.1,-0.2,10.0,1.5,-7.0,76,61,46,30.40,30.13,10,2,0,0.00
2013-1-27,32.7,30.7,25.1,30.0,22.6,10.0,95,74,53,30.13,29.79,9,2,0,0.09
2013-1-28,34.9,32.0,30.6,34.0,31.1,30.0,98,95,93,29.89,29.62,5,1,0,0.29
2013-1-29,35.2,32.0,27.9,32.0,28.5,21.0,97,87,74,29.74,29.53,20,2,0,0.10
2013-1-30,27.6,17.5,8.4,20.0,9.2,-1.0,77,70,64,29.80,29.65,14,6,0,0.00
2013-1-31,8.1,0.4,-8.2,1.0,-9.3,-19.0,74,64,57,30.35,29.81,15,5,0,0.00